createdAt,value
2023-02-04T00:00:34.565Z,1011.35
2023-02-04T00:01:34.552Z,1011.24
2023-02-04T00:02:34.593Z,1011.28
2023-02-04T00:03:34.527Z,1011.17
2023-02-04T00:04:34.534Z,1011.19
2023-02-04T00:05:34.580Z,1011.21
2023-02-04T00:06:34.498Z,1011.23
2023-02-04T00:07:34.493Z,1011.18
2023-02-04T00:08:34.506Z,1011.19
2023-02-04T00:09:34.462Z,1011.22
2023-02-04T00:10:34.494Z,1011.25
2023-02-04T00:11:34.431Z,1011.20
2023-02-04T00:12:34.471Z,1011.26
2023-02-04T00:13:34.423Z,1011.22
2023-02-04T00:14:34.400Z,1011.25
2023-02-04T00:15:34.404Z,1011.25
2023-02-04T00:16:34.420Z,1011.24
2023-02-04T00:17:34.363Z,1011.24
2023-02-04T00:18:34.352Z,1011.31
2023-02-04T00:19:34.343Z,1011.32
2023-02-04T00:20:34.339Z,1011.28
2023-02-04T00:21:34.321Z,1011.30
2023-02-04T00:22:34.323Z,1011.22
2023-02-04T00:23:34.301Z,1011.24
2023-02-04T00:24:34.281Z,1011.17
2023-02-04T00:25:34.288Z,1011.21
2023-02-04T00:26:34.262Z,1011.24
2023-02-04T00:27:34.288Z,1011.24
2023-02-04T00:28:34.240Z,1011.25
2023-02-04T00:29:34.231Z,1011.29
2023-02-04T00:30:34.211Z,1011.22
2023-02-04T00:31:34.332Z,1011.29
2023-02-04T00:32:34.197Z,1011.27
2023-02-04T00:33:34.242Z,1011.26
2023-02-04T00:34:34.172Z,1011.26
2023-02-04T00:35:34.162Z,1011.26
2023-02-04T00:36:34.154Z,1011.32
2023-02-04T00:37:34.152Z,1011.31
2023-02-04T00:38:34.135Z,1011.36
2023-02-04T00:39:34.141Z,1011.41
2023-02-04T00:40:34.103Z,1011.34
2023-02-04T00:41:34.095Z,1011.33
2023-02-04T00:42:34.085Z,1011.31
2023-02-04T00:43:34.077Z,1011.34
2023-02-04T00:44:34.064Z,1011.34
2023-02-04T00:45:34.204Z,1011.31
2023-02-04T00:46:34.034Z,1011.37
2023-02-04T00:47:34.023Z,1011.36
2023-02-04T00:48:34.014Z,1011.45
2023-02-04T00:49:34.009Z,1011.45
2023-02-04T00:50:33.993Z,1011.52
2023-02-04T00:51:34.003Z,1011.53
2023-02-04T00:52:33.985Z,1011.42
2023-02-04T00:53:33.967Z,1011.52
2023-02-04T00:54:33.943Z,1011.47
2023-02-04T00:55:33.945Z,1011.56
2023-02-04T00:56:33.923Z,1011.43
2023-02-04T00:57:33.952Z,1011.41
2023-02-04T00:58:33.903Z,1011.43
2023-02-04T00:59:33.892Z,1011.39
2023-02-04T01:00:33.993Z,1011.41
2023-02-04T01:01:33.926Z,1011.41
2023-02-04T01:02:33.915Z,1011.40
2023-02-04T01:03:33.865Z,1011.44
2023-02-04T01:04:33.834Z,1011.44
2023-02-04T01:05:33.834Z,1011.45
2023-02-04T01:06:33.825Z,1011.44
2023-02-04T01:07:33.859Z,1011.54
2023-02-04T01:08:33.816Z,1011.49
2023-02-04T01:09:33.787Z,1011.54
2023-02-04T01:10:33.858Z,1011.52
2023-02-04T01:11:33.815Z,1011.55
2023-02-04T01:12:33.761Z,1011.63
2023-02-04T01:13:33.742Z,1011.67
2023-02-04T01:14:33.748Z,1011.68
2023-02-04T01:15:33.717Z,1011.66
2023-02-04T01:16:33.765Z,1011.75
2023-02-04T01:17:33.708Z,1011.81
2023-02-04T01:18:33.682Z,1011.71
2023-02-04T01:19:33.719Z,1011.69
2023-02-04T01:20:33.695Z,1011.63
2023-02-04T01:21:33.647Z,1011.67
2023-02-04T01:22:33.638Z,1011.82
2023-02-04T01:23:33.635Z,1011.84
2023-02-04T01:24:33.618Z,1011.77
2023-02-04T01:25:33.631Z,1011.76
2023-02-04T01:26:33.588Z,1011.83
2023-02-04T01:27:33.586Z,1011.87
2023-02-04T01:28:33.569Z,1011.82
2023-02-04T01:29:33.557Z,1011.90
2023-02-04T01:30:33.865Z,1011.94
2023-02-04T01:31:33.583Z,1012.02
2023-02-04T01:32:33.536Z,1012.01
2023-02-04T01:33:33.515Z,1012.01
2023-02-04T01:34:33.498Z,1012.02
2023-02-04T01:35:33.538Z,1012.00
2023-02-04T01:36:33.478Z,1012.02
2023-02-04T01:37:33.493Z,1012.15
2023-02-04T01:38:33.465Z,1012.17
2023-02-04T01:39:33.456Z,1012.18
2023-02-04T01:40:33.580Z,1012.24
2023-02-04T01:41:33.427Z,1012.25
2023-02-04T01:42:33.410Z,1012.23
2023-02-04T01:43:33.429Z,1012.29
2023-02-04T01:44:33.392Z,1012.35
2023-02-04T01:45:33.391Z,1012.39
2023-02-04T01:46:33.366Z,1012.35
2023-02-04T01:47:33.357Z,1012.38
2023-02-04T01:48:33.368Z,1012.32
2023-02-04T01:49:33.351Z,1012.37
2023-02-04T01:50:33.631Z,1012.35
2023-02-04T01:51:33.320Z,1012.39
2023-02-04T01:52:33.299Z,1012.38
2023-02-04T01:53:33.296Z,1012.41
2023-02-04T01:54:33.296Z,1012.46
2023-02-04T01:55:33.273Z,1012.47
2023-02-04T01:56:33.256Z,1012.49
2023-02-04T01:57:33.246Z,1012.49
2023-02-04T01:58:33.228Z,1012.50
2023-02-04T01:59:33.216Z,1012.46
2023-02-04T02:00:33.690Z,1012.52
2023-02-04T02:01:33.199Z,1012.54
2023-02-04T02:02:33.298Z,1012.60
2023-02-04T02:03:33.185Z,1012.60
2023-02-04T02:04:33.165Z,1012.62
2023-02-04T02:05:33.155Z,1012.55
2023-02-04T02:06:33.156Z,1012.56
2023-02-04T02:07:33.136Z,1012.54
2023-02-04T02:08:33.116Z,1012.57
2023-02-04T02:09:33.113Z,1012.51
2023-02-04T02:10:33.397Z,1012.56
2023-02-04T02:11:33.085Z,1012.54
2023-02-04T02:12:33.086Z,1012.56
2023-02-04T02:13:33.068Z,1012.61
2023-02-04T02:14:33.052Z,1012.64
2023-02-04T02:15:33.038Z,1012.55
2023-02-04T02:16:33.059Z,1012.54
2023-02-04T02:17:33.034Z,1012.46
2023-02-04T02:18:33.004Z,1012.50
2023-02-04T02:19:32.996Z,1012.54
2023-02-04T02:20:33.185Z,1012.53
2023-02-04T02:21:32.967Z,1012.53
2023-02-04T02:22:32.954Z,1012.60
2023-02-04T02:23:32.970Z,1012.60
2023-02-04T02:24:32.943Z,1012.58
2023-02-04T02:25:32.925Z,1012.65
2023-02-04T02:26:32.921Z,1012.67
2023-02-04T02:27:32.899Z,1012.71
2023-02-04T02:28:32.923Z,1012.73
2023-02-04T02:29:32.875Z,1012.72
2023-02-04T02:30:33.111Z,1012.79
2023-02-04T02:31:32.944Z,1012.77
2023-02-04T02:32:32.834Z,1012.80
2023-02-04T02:33:32.824Z,1012.76
2023-02-04T02:34:32.989Z,1012.80
2023-02-04T02:35:32.806Z,1012.77
2023-02-04T02:36:32.794Z,1012.89
2023-02-04T02:37:32.788Z,1012.85
2023-02-04T02:38:32.773Z,1012.90
2023-02-04T02:39:32.754Z,1012.85
2023-02-04T02:40:33.110Z,1012.89
2023-02-04T02:41:39.994Z,1012.94
2023-02-04T02:42:32.725Z,1012.91
2023-02-04T02:43:32.719Z,1012.96
2023-02-04T02:44:32.704Z,1012.97
2023-02-04T02:45:32.693Z,1012.97
2023-02-04T02:46:32.703Z,1012.98
2023-02-04T02:47:32.662Z,1012.97
2023-02-04T02:48:32.663Z,1012.97
2023-02-04T02:49:32.652Z,1012.95
2023-02-04T02:50:32.968Z,1012.92
2023-02-04T02:51:32.618Z,1012.95
2023-02-04T02:52:32.620Z,1013.05
2023-02-04T02:53:32.602Z,1012.95
2023-02-04T02:54:32.580Z,1012.93
2023-02-04T02:55:32.583Z,1012.98
2023-02-04T02:56:32.560Z,1012.99
2023-02-04T02:57:32.567Z,1012.95
2023-02-04T02:58:32.542Z,1012.96
2023-02-04T02:59:32.520Z,1012.95
2023-02-04T03:00:32.834Z,1012.93
2023-02-04T03:01:32.581Z,1012.92
2023-02-04T03:02:32.529Z,1013.00
2023-02-04T03:03:32.487Z,1012.95
2023-02-04T03:04:32.466Z,1013.03
2023-02-04T03:05:32.450Z,1013.03
2023-02-04T03:06:32.448Z,1013.00
2023-02-04T03:07:32.444Z,1012.99
2023-02-04T03:08:32.444Z,1012.99
2023-02-04T03:09:32.408Z,1013.02
2023-02-04T03:10:32.601Z,1013.03
2023-02-04T03:11:32.387Z,1013.00
2023-02-04T03:12:32.374Z,1012.99
2023-02-04T03:13:32.356Z,1013.06
2023-02-04T03:14:32.365Z,1013.07
2023-02-04T03:15:32.383Z,1013.12
2023-02-04T03:16:32.325Z,1013.08
2023-02-04T03:17:32.323Z,1013.10
2023-02-04T03:18:32.297Z,1013.15
2023-02-04T03:19:32.289Z,1013.12
2023-02-04T03:20:32.538Z,1013.13
2023-02-04T03:21:32.287Z,1013.16
2023-02-04T03:22:32.261Z,1013.16
2023-02-04T03:23:32.248Z,1013.16
2023-02-04T03:24:32.238Z,1013.21
2023-02-04T03:25:32.244Z,1013.20
2023-02-04T03:26:32.214Z,1013.16
2023-02-04T03:27:32.198Z,1013.21
2023-02-04T03:28:32.190Z,1013.31
2023-02-04T03:29:32.172Z,1013.34
2023-02-04T03:30:32.407Z,1013.32
2023-02-04T03:31:32.278Z,1013.34
2023-02-04T03:32:32.145Z,1013.41
2023-02-04T03:33:32.130Z,1013.44
2023-02-04T03:34:32.123Z,1013.50
2023-02-04T03:35:32.107Z,1013.56
2023-02-04T03:36:32.100Z,1013.57
2023-02-04T03:37:32.102Z,1013.55
2023-02-04T03:38:32.071Z,1013.58
2023-02-04T03:39:32.072Z,1013.57
2023-02-04T03:40:32.337Z,1013.55
2023-02-04T03:41:32.042Z,1013.57
2023-02-04T03:42:32.030Z,1013.62
2023-02-04T03:43:34.014Z,1013.56
2023-02-04T03:44:32.005Z,1013.62
2023-02-04T03:45:40.591Z,1013.60
2023-02-04T03:46:33.023Z,1013.63
2023-02-04T03:47:31.962Z,1013.61
2023-02-04T03:48:31.983Z,1013.62
2023-02-04T03:49:31.945Z,1013.56
2023-02-04T03:50:32.236Z,1013.62
2023-02-04T03:51:31.934Z,1013.57
2023-02-04T03:52:31.912Z,1013.57
2023-02-04T03:53:31.905Z,1013.65
2023-02-04T03:54:31.918Z,1013.66
2023-02-04T03:55:31.872Z,1013.66
2023-02-04T03:56:31.861Z,1013.64
2023-02-04T03:57:31.852Z,1013.69
2023-02-04T03:58:31.857Z,1013.65
2023-02-04T03:59:31.867Z,1013.68
2023-02-04T04:00:32.026Z,1013.66
2023-02-04T04:01:31.837Z,1013.70
2023-02-04T04:02:31.859Z,1013.73
2023-02-04T04:03:31.801Z,1013.74
2023-02-04T04:04:31.775Z,1013.74
2023-02-04T04:05:31.779Z,1013.73
2023-02-04T04:06:31.756Z,1013.74
2023-02-04T04:07:31.741Z,1013.75
2023-02-04T04:08:31.726Z,1013.73
2023-02-04T04:09:31.711Z,1013.70
2023-02-04T04:10:32.030Z,1013.71
2023-02-04T04:11:31.702Z,1013.70
2023-02-04T04:12:31.688Z,1013.71
2023-02-04T04:13:31.667Z,1013.68
2023-02-04T04:14:31.669Z,1013.71
2023-02-04T04:15:31.645Z,1013.65
2023-02-04T04:16:31.666Z,1013.71
2023-02-04T04:17:31.629Z,1013.69
2023-02-04T04:18:31.615Z,1013.71
2023-02-04T04:19:31.601Z,1013.73
2023-02-04T04:20:31.824Z,1013.65
2023-02-04T04:21:31.582Z,1013.66
2023-02-04T04:22:31.584Z,1013.73
2023-02-04T04:23:31.552Z,1013.68
2023-02-04T04:24:31.541Z,1013.67
2023-02-04T04:25:31.520Z,1013.73
2023-02-04T04:26:31.515Z,1013.72
2023-02-04T04:27:31.498Z,1013.70
2023-02-04T04:28:31.539Z,1013.73
2023-02-04T04:29:31.477Z,1013.74
2023-02-04T04:30:31.688Z,1013.74
2023-02-04T04:31:31.594Z,1013.75
2023-02-04T04:32:31.446Z,1013.71
2023-02-04T04:33:31.425Z,1013.75
2023-02-04T04:34:31.439Z,1013.89
2023-02-04T04:35:31.405Z,1013.81
2023-02-04T04:36:31.396Z,1013.90
2023-02-04T04:37:31.374Z,1013.82
2023-02-04T04:38:31.367Z,1013.78
2023-02-04T04:39:31.373Z,1013.77
2023-02-04T04:40:31.696Z,1013.79
2023-02-04T04:41:31.333Z,1013.79
2023-02-04T04:42:31.326Z,1013.85
2023-02-04T04:43:31.302Z,1013.78
2023-02-04T04:44:31.300Z,1013.84
2023-02-04T04:45:31.303Z,1013.86
2023-02-04T04:46:31.351Z,1013.90
2023-02-04T04:47:31.261Z,1013.86
2023-02-04T04:48:31.266Z,1013.93
2023-02-04T04:49:31.231Z,1013.98
2023-02-04T04:50:31.508Z,1013.96
2023-02-04T04:51:31.230Z,1014.01
2023-02-04T04:52:31.201Z,1013.99
2023-02-04T04:53:31.188Z,1014.01
2023-02-04T04:54:31.181Z,1014.07
2023-02-04T04:55:31.162Z,1014.05
2023-02-04T04:56:31.182Z,1014.11
2023-02-04T04:57:31.139Z,1014.12
2023-02-04T04:58:31.138Z,1014.14
2023-02-04T04:59:31.109Z,1014.17
2023-02-04T05:00:31.432Z,1014.19
2023-02-04T05:01:31.104Z,1014.15
2023-02-04T05:02:31.120Z,1014.18
2023-02-04T05:03:31.075Z,1014.14
2023-02-04T05:04:31.117Z,1014.09
2023-02-04T05:05:31.059Z,1014.10
2023-02-04T05:06:31.049Z,1014.08
2023-02-04T05:07:31.026Z,1014.11
2023-02-04T05:08:31.044Z,1014.22
2023-02-04T05:09:31.008Z,1014.21
2023-02-04T05:10:31.289Z,1014.18
2023-02-04T05:11:30.995Z,1014.15
2023-02-04T05:12:30.979Z,1014.15
2023-02-04T05:13:30.959Z,1014.20
2023-02-04T05:14:30.978Z,1014.23
2023-02-04T05:15:30.942Z,1014.21
2023-02-04T05:16:30.952Z,1014.23
2023-02-04T05:17:30.920Z,1014.25
2023-02-04T05:18:30.905Z,1014.26
2023-02-04T05:19:30.887Z,1014.25
2023-02-04T05:20:31.197Z,1014.26
2023-02-04T05:21:30.875Z,1014.27
2023-02-04T05:22:30.870Z,1014.30
2023-02-04T05:23:30.840Z,1014.31
2023-02-04T05:24:30.835Z,1014.28
2023-02-04T05:25:30.818Z,1014.34
2023-02-04T05:26:31.407Z,1014.31
2023-02-04T05:27:30.796Z,1014.30
2023-02-04T05:28:30.785Z,1014.31
2023-02-04T05:29:30.766Z,1014.28
2023-02-04T05:30:31.218Z,1014.34
2023-02-04T05:31:30.836Z,1014.34
2023-02-04T05:32:30.746Z,1014.39
2023-02-04T05:33:30.725Z,1014.35
2023-02-04T05:34:30.726Z,1014.36
2023-02-04T05:35:30.705Z,1014.36
2023-02-04T05:36:30.695Z,1014.46
2023-02-04T05:37:30.694Z,1014.45
2023-02-04T05:38:30.674Z,1014.43
2023-02-04T05:39:30.656Z,1014.48
2023-02-04T05:40:31.194Z,1014.42
2023-02-04T05:41:30.652Z,1014.44
2023-02-04T05:42:30.653Z,1014.47
2023-02-04T05:43:30.616Z,1014.39
2023-02-04T05:44:30.603Z,1014.41
2023-02-04T05:45:30.623Z,1014.49
2023-02-04T05:46:30.582Z,1014.47
2023-02-04T05:47:30.564Z,1014.47
2023-02-04T05:48:30.582Z,1014.44
2023-02-04T05:49:30.544Z,1014.44
2023-02-04T05:50:30.780Z,1014.51
2023-02-04T05:51:30.532Z,1014.59
2023-02-04T05:52:30.520Z,1014.54
2023-02-04T05:53:30.502Z,1014.65
2023-02-04T05:54:30.594Z,1014.59
2023-02-04T05:55:30.472Z,1014.59
2023-02-04T05:56:30.464Z,1014.59
2023-02-04T05:57:30.451Z,1014.60
2023-02-04T05:58:30.442Z,1014.57
2023-02-04T05:59:30.431Z,1014.60
2023-02-04T06:00:30.610Z,1014.66
2023-02-04T06:01:30.416Z,1014.71
2023-02-04T06:02:30.406Z,1014.71
2023-02-04T06:03:30.419Z,1014.73
2023-02-04T06:04:30.416Z,1014.77
2023-02-04T06:05:30.368Z,1014.84
2023-02-04T06:06:30.371Z,1014.80
2023-02-04T06:07:30.341Z,1014.85
2023-02-04T06:08:30.333Z,1014.84
2023-02-04T06:09:30.319Z,1014.84
2023-02-04T06:10:30.661Z,1014.90
2023-02-04T06:11:30.324Z,1014.88
2023-02-04T06:12:30.288Z,1014.95
2023-02-04T06:13:30.282Z,1014.90
2023-02-04T06:14:30.263Z,1014.95
2023-02-04T06:15:30.250Z,1014.98
2023-02-04T06:16:30.263Z,1015.00
2023-02-04T06:17:30.240Z,1014.98
2023-02-04T06:18:30.232Z,1015.03
2023-02-04T06:19:30.201Z,1014.98
2023-02-04T06:20:30.351Z,1014.97
2023-02-04T06:21:30.183Z,1014.99
2023-02-04T06:22:30.199Z,1015.03
2023-02-04T06:23:30.160Z,1015.05
2023-02-04T06:24:30.149Z,1015.09
2023-02-04T06:25:30.141Z,1015.00
2023-02-04T06:26:30.132Z,1014.99
2023-02-04T06:27:30.109Z,1015.11
2023-02-04T06:28:30.126Z,1015.07
2023-02-04T06:29:30.092Z,1015.10
2023-02-04T06:30:30.482Z,1015.02
2023-02-04T06:31:30.153Z,1015.05
2023-02-04T06:32:30.064Z,1015.02
2023-02-04T06:33:30.043Z,1014.98
2023-02-04T06:34:30.057Z,1015.01
2023-02-04T06:35:30.021Z,1014.95
2023-02-04T06:36:30.016Z,1014.94
2023-02-04T06:37:29.992Z,1014.99
2023-02-04T06:38:29.989Z,1014.97
2023-02-04T06:39:29.990Z,1014.95
2023-02-04T06:40:30.222Z,1015.00
2023-02-04T06:41:29.961Z,1015.04
2023-02-04T06:42:29.935Z,1015.08
2023-02-04T06:43:29.927Z,1015.11
2023-02-04T06:44:29.920Z,1015.13
2023-02-04T06:45:29.930Z,1015.10
2023-02-04T06:46:30.073Z,1015.15
2023-02-04T06:47:29.882Z,1015.18
2023-02-04T06:48:31.184Z,1015.16
2023-02-04T06:49:29.857Z,1015.22
2023-02-04T06:50:30.153Z,1015.18
2023-02-04T06:51:29.860Z,1015.19
2023-02-04T06:52:29.836Z,1015.11
2023-02-04T06:53:29.812Z,1015.16
2023-02-04T06:54:29.797Z,1015.15
2023-02-04T06:55:29.824Z,1015.13
2023-02-04T06:56:29.843Z,1015.16
2023-02-04T06:57:29.759Z,1015.20
2023-02-04T06:58:29.756Z,1015.22
2023-02-04T06:59:29.738Z,1015.24
2023-02-04T07:00:30.147Z,1015.31
2023-02-04T07:01:29.771Z,1015.33
2023-02-04T07:02:29.747Z,1015.30
2023-02-04T07:03:29.688Z,1015.32
2023-02-04T07:04:29.680Z,1015.38
2023-02-04T07:05:29.678Z,1015.42
2023-02-04T07:06:29.648Z,1015.40
2023-02-04T07:07:29.676Z,1015.47
2023-02-04T07:08:29.636Z,1015.40
2023-02-04T07:09:29.619Z,1015.45
2023-02-04T07:10:29.798Z,1015.43
2023-02-04T07:11:29.598Z,1015.43
2023-02-04T07:12:29.593Z,1015.42
2023-02-04T07:13:29.600Z,1015.49
2023-02-04T07:14:29.568Z,1015.48
2023-02-04T07:15:29.603Z,1015.45
2023-02-04T07:16:29.540Z,1015.49
2023-02-04T07:17:29.528Z,1015.57
2023-02-04T07:18:29.542Z,1015.52
2023-02-04T07:19:29.530Z,1015.60
2023-02-04T07:20:29.525Z,1015.59
2023-02-04T07:21:29.493Z,1015.62
2023-02-04T07:22:29.470Z,1015.59
2023-02-04T07:23:29.460Z,1015.59
2023-02-04T07:24:29.448Z,1015.52
2023-02-04T07:25:29.461Z,1015.51
2023-02-04T07:26:29.432Z,1015.61
2023-02-04T07:27:29.417Z,1015.58
2023-02-04T07:28:29.398Z,1015.64
2023-02-04T07:29:29.390Z,1015.66
2023-02-04T07:30:29.375Z,1015.63
2023-02-04T07:31:29.478Z,1015.66
2023-02-04T07:32:29.357Z,1015.70
2023-02-04T07:33:29.345Z,1015.66
2023-02-04T07:34:29.331Z,1015.66
2023-02-04T07:35:29.317Z,1015.65
2023-02-04T07:36:29.321Z,1015.64
2023-02-04T07:37:29.315Z,1015.61
2023-02-04T07:38:29.283Z,1015.62
2023-02-04T07:39:29.282Z,1015.71
2023-02-04T07:40:29.353Z,1015.71
2023-02-04T07:41:29.242Z,1015.75
2023-02-04T07:42:29.231Z,1015.79
2023-02-04T07:43:29.240Z,1015.85
2023-02-04T07:44:29.206Z,1015.82
2023-02-04T07:45:29.198Z,1015.86
2023-02-04T07:46:29.258Z,1015.84
2023-02-04T07:47:29.172Z,1015.86
2023-02-04T07:48:29.157Z,1015.88
2023-02-04T07:49:29.166Z,1015.90
2023-02-04T07:50:29.265Z,1015.93
2023-02-04T07:51:29.126Z,1015.96
2023-02-04T07:52:29.106Z,1015.97
2023-02-04T07:53:29.102Z,1015.96
2023-02-04T07:54:29.088Z,1015.99
2023-02-04T07:55:29.093Z,1016.04
2023-02-04T07:56:29.057Z,1016.02
2023-02-04T07:57:29.053Z,1016.07
2023-02-04T07:58:29.042Z,1016.05
2023-02-04T07:59:29.027Z,1016.08
2023-02-04T08:00:29.118Z,1016.12
2023-02-04T08:01:29.063Z,1016.09
2023-02-04T08:02:29.014Z,1016.12
2023-02-04T08:03:28.984Z,1016.13
2023-02-04T08:04:28.965Z,1016.13
2023-02-04T08:05:28.955Z,1016.09
2023-02-04T08:06:28.973Z,1016.11
2023-02-04T08:07:28.933Z,1016.07
2023-02-04T08:08:28.922Z,1016.11
2023-02-04T08:09:28.920Z,1016.16
2023-02-04T08:10:28.908Z,1016.23
2023-02-04T08:11:28.881Z,1016.21
2023-02-04T08:12:28.890Z,1016.23
2023-02-04T08:13:28.876Z,1016.28
2023-02-04T08:14:28.854Z,1016.23
2023-02-04T08:15:28.841Z,1016.24
2023-02-04T08:16:28.901Z,1016.25
2023-02-04T08:17:28.838Z,1016.26
2023-02-04T08:18:28.803Z,1016.28
2023-02-04T08:19:28.791Z,1016.29
2023-02-04T08:20:28.782Z,1016.29
2023-02-04T08:21:28.771Z,1016.29
2023-02-04T08:22:28.796Z,1016.24
2023-02-04T08:23:28.768Z,1016.27
2023-02-04T08:24:28.728Z,1016.33
2023-02-04T08:25:28.723Z,1016.34
2023-02-04T08:26:28.711Z,1016.34
2023-02-04T08:27:28.699Z,1016.41
2023-02-04T08:28:28.682Z,1016.46
2023-02-04T08:29:28.703Z,1016.47
2023-02-04T08:30:28.688Z,1016.47
2023-02-04T08:31:28.751Z,1016.51
2023-02-04T08:32:28.646Z,1016.56
2023-02-04T08:33:28.624Z,1016.51
2023-02-04T08:34:28.617Z,1016.52
2023-02-04T08:35:28.638Z,1016.51
2023-02-04T08:36:28.592Z,1016.55
2023-02-04T08:37:28.589Z,1016.63
2023-02-04T08:38:28.564Z,1016.60
2023-02-04T08:39:28.555Z,1016.70
2023-02-04T08:40:28.588Z,1016.66
2023-02-04T08:41:28.534Z,1016.70
2023-02-04T08:42:28.512Z,1016.66
2023-02-04T08:43:28.512Z,1016.69
2023-02-04T08:44:28.497Z,1016.71
2023-02-04T08:45:28.490Z,1016.73
2023-02-04T08:46:28.556Z,1016.73
2023-02-04T08:47:28.481Z,1016.69
2023-02-04T08:48:28.494Z,1016.71
2023-02-04T08:49:28.567Z,1016.71
2023-02-04T08:50:28.446Z,1016.65
2023-02-04T08:51:28.459Z,1016.67
2023-02-04T08:52:28.423Z,1016.66
2023-02-04T08:53:28.418Z,1016.69
2023-02-04T08:54:28.408Z,1016.65
2023-02-04T08:55:28.396Z,1016.66
2023-02-04T08:56:28.385Z,1016.69
2023-02-04T08:57:28.396Z,1016.68
2023-02-04T08:58:28.367Z,1016.74
2023-02-04T08:59:28.359Z,1016.75
2023-02-04T09:00:28.484Z,1016.84
2023-02-04T09:01:28.340Z,1016.86
2023-02-04T09:02:28.475Z,1016.88
2023-02-04T09:03:28.331Z,1016.92
2023-02-04T09:04:28.302Z,1016.97
2023-02-04T09:05:28.292Z,1016.95
2023-02-04T09:06:28.292Z,1017.02
2023-02-04T09:07:28.273Z,1016.96
2023-02-04T09:08:28.253Z,1017.01
2023-02-04T09:09:28.267Z,1017.00
2023-02-04T09:10:28.233Z,1017.04
2023-02-04T09:11:28.224Z,1016.97
2023-02-04T09:12:28.215Z,1016.98
2023-02-04T09:13:28.209Z,1017.00
2023-02-04T09:14:28.217Z,1017.08
2023-02-04T09:15:28.197Z,1017.14
2023-02-04T09:16:28.275Z,1017.05
2023-02-04T09:17:28.157Z,1017.05
2023-02-04T09:18:28.148Z,1017.10
2023-02-04T09:19:28.138Z,1017.09
2023-02-04T09:20:28.148Z,1017.16
2023-02-04T09:21:28.120Z,1017.15
2023-02-04T09:22:28.099Z,1017.13
2023-02-04T09:23:28.101Z,1017.16
2023-02-04T09:24:28.082Z,1017.19
2023-02-04T09:25:28.079Z,1017.16
2023-02-04T09:26:28.083Z,1017.21
2023-02-04T09:27:28.058Z,1017.26
2023-02-04T09:28:28.043Z,1017.24
2023-02-04T09:29:28.041Z,1017.20
2023-02-04T09:30:28.010Z,1017.16
2023-02-04T09:31:35.158Z,1017.24
2023-02-04T09:32:28.003Z,1017.19
2023-02-04T09:33:27.988Z,1017.21
2023-02-04T09:34:27.975Z,1017.26
2023-02-04T09:35:27.969Z,1017.30
2023-02-04T09:36:27.948Z,1017.27
2023-02-04T09:37:27.958Z,1017.23
2023-02-04T09:38:27.930Z,1017.19
2023-02-04T09:39:27.918Z,1017.24
2023-02-04T09:40:27.898Z,1017.22
2023-02-04T09:41:27.889Z,1017.23
2023-02-04T09:42:27.880Z,1017.28
2023-02-04T09:43:28.379Z,1017.34
2023-02-04T09:44:27.861Z,1017.31
2023-02-04T09:45:27.875Z,1017.32
2023-02-04T09:46:27.843Z,1017.30
2023-02-04T09:47:27.826Z,1017.39
2023-02-04T09:48:27.813Z,1017.35
2023-02-04T09:49:27.830Z,1017.28
2023-02-04T09:50:27.799Z,1017.41
2023-02-04T09:51:27.786Z,1017.43
2023-02-04T09:52:27.769Z,1017.45
2023-02-04T09:53:27.760Z,1017.49
2023-02-04T09:54:27.745Z,1017.47
2023-02-04T09:55:27.754Z,1017.54
2023-02-04T09:56:27.716Z,1017.59
2023-02-04T09:57:27.709Z,1017.53
2023-02-04T09:58:27.686Z,1017.59
2023-02-04T09:59:27.676Z,1017.59
2023-02-04T10:00:27.656Z,1017.63
2023-02-04T10:01:27.696Z,1017.69
2023-02-04T10:02:27.638Z,1017.81
2023-02-04T10:03:27.683Z,1017.77
2023-02-04T10:04:27.615Z,1017.76
2023-02-04T10:05:27.608Z,1017.77
2023-02-04T10:06:27.612Z,1017.74
2023-02-04T10:07:27.640Z,1017.73
2023-02-04T10:08:27.564Z,1017.73
2023-02-04T10:09:27.564Z,1017.78
2023-02-04T10:10:27.540Z,1017.81
2023-02-04T10:11:27.533Z,1017.75
2023-02-04T10:12:27.526Z,1017.74
2023-02-04T10:13:27.528Z,1017.76
2023-02-04T10:14:27.495Z,1017.77
2023-02-04T10:15:27.485Z,1017.78
2023-02-04T10:16:27.532Z,1017.73
2023-02-04T10:17:27.465Z,1017.70
2023-02-04T10:18:27.447Z,1017.73
2023-02-04T10:19:27.444Z,1017.74
2023-02-04T10:20:27.430Z,1017.73
2023-02-04T10:21:27.405Z,1017.68
2023-02-04T10:22:27.393Z,1017.70
2023-02-04T10:23:27.384Z,1017.70
2023-02-04T10:24:27.391Z,1017.73
2023-02-04T10:25:27.369Z,1017.71
2023-02-04T10:26:27.353Z,1017.74
2023-02-04T10:27:27.343Z,1017.73
2023-02-04T10:28:27.325Z,1017.75
2023-02-04T10:29:27.319Z,1017.76
2023-02-04T10:30:27.366Z,1017.72
2023-02-04T10:31:27.360Z,1017.68
2023-02-04T10:32:27.288Z,1017.78
2023-02-04T10:33:27.278Z,1017.76
2023-02-04T10:34:27.259Z,1017.79
2023-02-04T10:35:27.260Z,1017.75
2023-02-04T10:36:27.282Z,1017.77
2023-02-04T10:37:27.230Z,1017.76
2023-02-04T10:38:27.222Z,1017.83
2023-02-04T10:39:27.211Z,1017.85
2023-02-04T10:40:27.196Z,1017.80
2023-02-04T10:41:27.190Z,1017.81
2023-02-04T10:42:27.201Z,1017.91
2023-02-04T10:43:27.161Z,1017.91
2023-02-04T10:44:27.151Z,1017.85
2023-02-04T10:45:27.146Z,1017.84
2023-02-04T10:46:27.150Z,1017.80
2023-02-04T10:47:27.123Z,1017.81
2023-02-04T10:48:27.151Z,1017.85
2023-02-04T10:49:27.101Z,1017.86
2023-02-04T10:50:27.080Z,1017.89
2023-02-04T10:51:27.077Z,1017.87
2023-02-04T10:52:27.061Z,1017.82
2023-02-04T10:53:27.052Z,1017.84
2023-02-04T10:54:27.062Z,1017.85
2023-02-04T10:55:27.021Z,1017.92
2023-02-04T10:56:27.021Z,1017.87
2023-02-04T10:57:27.011Z,1017.93
2023-02-04T10:58:27.002Z,1017.88
2023-02-04T10:59:27.043Z,1017.85
2023-02-04T11:00:26.971Z,1017.81
2023-02-04T11:01:26.990Z,1017.85
2023-02-04T11:02:26.952Z,1017.85
2023-02-04T11:03:27.004Z,1017.85
2023-02-04T11:04:26.933Z,1017.81
2023-02-04T11:05:26.934Z,1017.86
2023-02-04T11:06:26.904Z,1017.87
2023-02-04T11:07:26.899Z,1017.88
2023-02-04T11:08:26.888Z,1017.84
2023-02-04T11:09:26.863Z,1017.85
2023-02-04T11:10:26.872Z,1017.82
2023-02-04T11:11:26.872Z,1017.85
2023-02-04T11:12:26.834Z,1017.84
2023-02-04T11:13:26.824Z,1017.79
2023-02-04T11:14:26.822Z,1017.77
2023-02-04T11:15:26.796Z,1017.79
2023-02-04T11:16:26.843Z,1017.81
2023-02-04T11:17:26.773Z,1017.85
2023-02-04T11:18:26.786Z,1017.83
2023-02-04T11:19:26.766Z,1017.79
2023-02-04T11:20:26.749Z,1017.74
2023-02-04T11:21:26.731Z,1017.73
2023-02-04T11:22:26.743Z,1017.81
2023-02-04T11:23:26.730Z,1017.80
2023-02-04T11:24:26.692Z,1017.82
2023-02-04T11:25:26.684Z,1017.83
2023-02-04T11:26:26.679Z,1017.73
2023-02-04T11:27:26.664Z,1017.75
2023-02-04T11:28:26.673Z,1017.72
2023-02-04T11:29:26.640Z,1017.79
2023-02-04T11:30:26.634Z,1017.72
2023-02-04T11:31:26.705Z,1017.74
2023-02-04T11:32:26.605Z,1017.81
2023-02-04T11:33:26.623Z,1017.73
2023-02-04T11:34:26.608Z,1017.75
2023-02-04T11:35:26.584Z,1017.78
2023-02-04T11:36:26.583Z,1017.80
2023-02-04T11:37:26.567Z,1017.79
2023-02-04T11:38:26.557Z,1017.79
2023-02-04T11:39:26.542Z,1017.81
2023-02-04T11:40:26.535Z,1017.78
2023-02-04T11:41:26.501Z,1017.81
2023-02-04T11:42:26.495Z,1017.82
2023-02-04T11:43:26.475Z,1017.80
2023-02-04T11:44:26.470Z,1017.82
2023-02-04T11:45:26.491Z,1017.84
2023-02-04T11:46:26.482Z,1017.79
2023-02-04T11:47:26.447Z,1017.79
2023-02-04T11:48:26.431Z,1017.84
2023-02-04T11:49:26.438Z,1017.85
2023-02-04T11:50:26.452Z,1017.83
2023-02-04T11:51:26.407Z,1017.83
2023-02-04T11:52:26.394Z,1017.84
2023-02-04T11:53:26.438Z,1017.83
2023-02-04T11:54:26.350Z,1017.80
2023-02-04T11:55:26.328Z,1017.84
2023-02-04T11:56:26.350Z,1017.83
2023-02-04T11:57:26.318Z,1017.89
2023-02-04T11:58:26.299Z,1017.95
2023-02-04T11:59:26.292Z,1017.87
2023-02-04T12:00:26.281Z,1017.80
2023-02-04T12:01:26.262Z,1017.85
2023-02-04T12:02:26.331Z,1017.79
2023-02-04T12:03:26.368Z,1017.81
2023-02-04T12:04:26.257Z,1017.85
2023-02-04T12:05:26.225Z,1017.85